香港 の空港の天気 - METARとTAF

香港国際空港 ( VHHH / HKG ) - 香港 赤リョウ角
飛行場実況気象(Metar)
観測時間04/15 12:00 HKT (04/15 04:00 UTC)
風向・風速東 9m/s
視程10km以上
天気現象
少しの雲 雲底高度 340m
全天の4割程度の雲 雲底高度 610m
気温24℃
湿度74%
気圧1013hPa
METARVHHH 150400Z 09017KT 9999 FEW011 SCT020 24/19 Q1013 NOSIG
過去の天気等 Google飛行場航空写真 Wunderground天気予報

過去48時間のMETAR

飛行場予報(TAF)
発表時間: 4/15 07:00 HKT (4/14 23:00 UTC)
予報対象時間: 15日8時 HKT ~ 16日14時 HKT
風向・風速東 8m/s
視程9000m
少しの雲 雲底高度 460m
全天の4割程度の雲 雲底高度 910m
16日10時 HKT ~ 16日14時 HKT に一時的に
視程4000m
天気現象しゅう雨
少しの積乱雲 雲底高度 300m
全天の4割程度の雲 雲底高度 910m
TAF VHHH 142300Z 1500/1606 09015KT 9000 FEW015 SCT030 TX26/1506Z TX25/1606Z TN22/1523Z
TEMPO 1602/1606 4000 SHRA FEW010CB SCT030